首页
METAR-TAF:

METAR-TAF

机场 :

迪拜国际机场

杜拜, 阿拉伯联合酋长国

纬度: 25-15-10N, 经度: 055-21-52E, 海拔: 8米

当前天气观测

该预报发布于1小时和1分钟前的17:00 UTC
风速7节,风向西,在西南西北之间变化
温度 33°C
湿度 67%
气压 1000 hPa
能见度10公里或以上
1500米以下无云,无积雨云

METAR: OMDB 231700Z 26007KT 220V310 CAVOK 33/26 Q1000 NOSIG

时间: 22:01 (18:01 UTC)

预报

该预报发布于1小时和10分钟前的16:51 UTC
预报有效从23日的 18点(UTC)到 25日的 00点(UTC)
风速10节,风向西
能见度10公里或以上
1500米以下无云,无积雨云
成为
从 23日的 18点(UTC)到 23日的 20点(UTC)
风速5节,风向
成为
从 24日的 05点(UTC)到 24日的 07点(UTC)
风速12节,风向西
成为
从 24日的 18点(UTC)到 24日的 20点(UTC)
风速5节,风向

TAF: OMDB 231651Z 2318/2500 26010KT CAVOK BECMG 2318/2320 18005KT BECMG 2405/2407 28012KT BECMG 2418/2420 18005KT

超过4000个机场的气象观测和天气预报(METAR&TAF报告)。

可查询的气象台以黄色和红色小点在地图上表示。

将鼠标移到小点上方,可查看气象台名称。

然后点击查看天气观测和预报。

如需切换地图:点击带黑十字的绿色按钮放大地图;点击带横线的绿色按钮缩小地图;或者点击绿色箭头查看邻近地区的地图。


METAR-TAF: